createdAt,value
2024-03-07T00:00:24.602Z,8.98
2024-03-07T00:03:12.834Z,3.20
2024-03-07T00:05:41.425Z,4.10
2024-03-07T00:08:11.414Z,5.57
2024-03-07T00:10:40.038Z,8.63
2024-03-07T00:13:09.464Z,4.57
2024-03-07T00:15:38.198Z,4.47
2024-03-07T00:18:07.311Z,4.38
2024-03-07T00:20:36.771Z,8.32
2024-03-07T00:23:05.502Z,7.45
2024-03-07T00:25:34.547Z,2.85
2024-03-07T00:28:05.797Z,6.10
2024-03-07T00:30:35.511Z,5.63
2024-03-07T00:33:04.178Z,5.70
2024-03-07T00:35:33.022Z,7.93
2024-03-07T00:38:01.418Z,9.48
2024-03-07T00:40:30.546Z,5.03
2024-03-07T00:43:00.726Z,11.55
2024-03-07T00:45:29.749Z,9.85
2024-03-07T00:47:58.260Z,6.25
2024-03-07T00:50:26.977Z,5.00
2024-03-07T00:52:55.423Z,12.18
2024-03-07T00:55:24.596Z,12.88
2024-03-07T00:57:52.871Z,5.65
2024-03-07T01:00:23.186Z,6.40
2024-03-07T01:02:54.661Z,6.85
2024-03-07T01:05:23.509Z,3.47
2024-03-07T01:07:51.915Z,12.15
2024-03-07T01:10:20.697Z,10.18
2024-03-07T01:12:51.352Z,6.13
2024-03-07T01:15:20.184Z,5.65
2024-03-07T01:17:48.738Z,4.28
2024-03-07T01:20:17.621Z,5.97
2024-03-07T01:22:46.279Z,11.50
2024-03-07T01:25:14.986Z,7.90
2024-03-07T01:27:43.398Z,6.47
2024-03-07T01:30:12.811Z,9.82
2024-03-07T01:32:41.197Z,4.15
2024-03-07T01:35:11.579Z,4.82
2024-03-07T01:37:39.812Z,11.90
2024-03-07T01:40:09.639Z,3.58
2024-03-07T01:42:37.847Z,4.47
2024-03-07T01:45:06.824Z,4.35
2024-03-07T01:47:35.187Z,7.55
2024-03-07T01:50:05.149Z,5.43
2024-03-07T01:52:33.732Z,5.43
2024-03-07T01:55:04.340Z,5.22
2024-03-07T01:57:33.197Z,4.88
2024-03-07T02:00:07.702Z,9.25
2024-03-07T02:02:36.944Z,3.40
2024-03-07T02:05:05.992Z,5.63
2024-03-07T02:07:34.624Z,4.63
2024-03-07T02:10:07.282Z,6.85
2024-03-07T02:12:35.481Z,3.28
2024-03-07T02:15:04.314Z,3.95
2024-03-07T02:17:33.587Z,6.07
2024-03-07T02:20:02.227Z,6.53
2024-03-07T02:22:30.378Z,6.53
2024-03-07T02:24:59.114Z,7.90
2024-03-07T02:27:27.246Z,3.80
2024-03-07T02:29:55.976Z,4.05
2024-03-07T02:32:24.772Z,8.88
2024-03-07T02:34:54.077Z,6.50
2024-03-07T02:37:22.249Z,4.82
2024-03-07T02:39:51.109Z,4.88
2024-03-07T02:42:19.429Z,3.20
2024-03-07T02:44:48.501Z,4.00
2024-03-07T02:47:17.066Z,4.13
2024-03-07T02:49:45.947Z,6.55
2024-03-07T02:52:14.073Z,5.50
2024-03-07T02:54:42.713Z,6.30
2024-03-07T02:57:12.934Z,7.20
2024-03-07T02:59:41.650Z,5.22
2024-03-07T03:02:09.800Z,7.55
2024-03-07T03:04:38.555Z,9.05
2024-03-07T03:07:08.485Z,7.78
2024-03-07T03:09:41.436Z,6.30
2024-03-07T03:12:10.240Z,7.72
2024-03-07T03:14:39.085Z,7.60
2024-03-07T03:17:10.352Z,6.38
2024-03-07T03:19:39.054Z,7.80
2024-03-07T03:22:10.409Z,6.75
2024-03-07T03:24:42.687Z,6.18
2024-03-07T03:27:12.284Z,7.10
2024-03-07T03:29:42.350Z,11.52
2024-03-07T03:32:10.534Z,7.00
2024-03-07T03:34:39.194Z,10.10
2024-03-07T03:37:07.500Z,10.88
2024-03-07T03:39:36.521Z,6.82
2024-03-07T03:42:04.933Z,9.23
2024-03-07T03:44:33.399Z,10.85
2024-03-07T03:47:05.351Z,7.30
2024-03-07T03:49:33.927Z,8.25
2024-03-07T03:52:02.351Z,8.02
2024-03-07T03:54:31.205Z,7.72
2024-03-07T03:57:00.404Z,10.27
2024-03-07T03:59:29.217Z,6.55
2024-03-07T04:01:57.352Z,11.13
2024-03-07T04:04:27.444Z,7.10
2024-03-07T04:06:55.707Z,4.90
2024-03-07T04:09:24.873Z,6.43
2024-03-07T04:11:53.219Z,11.20
2024-03-07T04:14:21.798Z,5.28
2024-03-07T04:16:50.111Z,6.43
2024-03-07T06:38:28.893Z,8.10
2024-03-07T06:40:57.001Z,8.30
2024-03-07T06:43:25.950Z,8.40
2024-03-07T06:45:53.929Z,10.00
2024-03-07T06:48:22.746Z,7.95
2024-03-07T06:50:52.272Z,10.00
2024-03-07T06:53:21.745Z,8.32
2024-03-07T06:55:50.698Z,10.85
2024-03-07T06:58:19.140Z,7.32
2024-03-07T07:00:47.298Z,12.10
2024-03-07T07:03:15.799Z,8.57
2024-03-07T07:05:44.025Z,9.15
2024-03-07T07:08:15.100Z,10.63
2024-03-07T07:10:44.290Z,16.75
2024-03-07T07:13:14.540Z,10.88
2024-03-07T07:15:42.673Z,10.20
2024-03-07T07:18:12.114Z,8.05
2024-03-07T07:20:40.488Z,12.98
2024-03-07T07:23:09.137Z,10.30
2024-03-07T07:25:37.352Z,9.63
2024-03-07T07:28:06.430Z,7.95
2024-03-07T07:30:34.937Z,4.72
2024-03-07T07:33:03.644Z,13.82
2024-03-07T07:35:32.623Z,8.27
2024-03-07T07:38:01.129Z,5.60
2024-03-07T07:40:29.642Z,8.88
2024-03-07T07:42:58.204Z,7.32
2024-03-07T07:45:26.516Z,5.70
2024-03-07T07:47:55.880Z,11.20
2024-03-07T07:50:25.682Z,9.05
2024-03-07T07:52:56.530Z,8.57
2024-03-07T07:55:26.909Z,9.38
2024-03-07T07:57:58.165Z,4.68
2024-03-07T08:00:30.790Z,9.98
2024-03-07T08:03:05.266Z,4.82
2024-03-07T08:08:08.396Z,4.10
2024-03-07T08:10:38.022Z,3.60
2024-03-07T08:13:12.040Z,7.38
2024-03-07T08:15:40.824Z,6.13
2024-03-07T08:18:12.777Z,4.88
2024-03-07T08:20:42.782Z,4.28
2024-03-07T08:23:11.980Z,9.38
2024-03-07T08:25:42.206Z,9.18
2024-03-07T08:28:10.802Z,7.72
2024-03-07T08:30:39.330Z,6.18
2024-03-07T08:33:09.342Z,9.23
2024-03-07T08:35:37.983Z,7.13
2024-03-07T08:38:06.585Z,9.05
2024-03-07T08:40:35.735Z,13.18
2024-03-07T08:43:05.157Z,10.98
2024-03-07T08:45:35.811Z,8.15
2024-03-07T08:48:06.272Z,8.07
2024-03-07T08:50:36.050Z,8.95
2024-03-07T08:53:08.834Z,11.30
2024-03-07T08:55:38.145Z,10.57
2024-03-07T08:58:10.258Z,11.68
2024-03-07T09:00:40.078Z,17.25
2024-03-07T09:03:12.391Z,8.80
2024-03-07T09:05:42.567Z,13.52
2024-03-07T09:08:11.310Z,15.70
2024-03-07T09:10:45.134Z,20.25
2024-03-07T09:13:14.004Z,23.95
2024-03-07T09:15:42.211Z,18.52
2024-03-07T09:18:10.936Z,14.23
2024-03-07T09:20:39.494Z,20.05
2024-03-07T09:23:08.557Z,15.85
2024-03-07T09:25:37.778Z,15.15
2024-03-07T09:28:07.969Z,17.83
2024-03-07T09:30:40.300Z,15.25
2024-03-07T09:33:12.594Z,12.93
2024-03-07T09:35:41.528Z,13.18
2024-03-07T09:38:10.160Z,13.70
2024-03-07T09:40:39.048Z,14.48
2024-03-07T09:43:11.383Z,14.77
2024-03-07T09:45:41.548Z,12.85
2024-03-07T09:48:10.798Z,9.00
2024-03-07T09:50:39.964Z,12.55
2024-03-07T09:53:10.220Z,9.73
2024-03-07T09:55:39.019Z,8.57
2024-03-07T09:58:10.712Z,18.70
2024-03-07T10:00:39.778Z,25.90
2024-03-07T10:03:10.887Z,9.60
2024-03-07T10:05:40.470Z,15.63
2024-03-07T10:08:09.413Z,10.60
2024-03-07T10:10:37.908Z,9.48
2024-03-07T10:13:07.187Z,11.27
2024-03-07T10:15:36.276Z,16.95
2024-03-07T10:18:09.830Z,10.90
2024-03-07T10:20:38.662Z,11.02
2024-03-07T10:23:09.347Z,12.73
2024-03-07T10:25:38.920Z,11.38
2024-03-07T10:28:10.216Z,18.35
2024-03-07T10:30:51.813Z,8.48
2024-03-07T10:33:21.586Z,7.45
2024-03-07T10:35:51.067Z,16.45
2024-03-07T10:38:20.714Z,21.75
2024-03-07T10:40:51.076Z,6.55
2024-03-07T10:43:21.951Z,10.38
2024-03-07T10:45:53.935Z,7.53
2024-03-07T10:48:29.720Z,10.48
2024-03-07T10:51:26.629Z,9.95
2024-03-07T10:54:09.474Z,9.77
2024-03-07T10:56:57.910Z,10.18
2024-03-07T10:59:34.870Z,12.27
2024-03-07T11:02:28.598Z,11.55
2024-03-07T11:04:57.778Z,8.43
2024-03-07T11:07:26.537Z,14.60
2024-03-07T11:09:56.992Z,13.90
2024-03-07T11:12:26.434Z,7.68
2024-03-07T11:14:58.022Z,4.93
2024-03-07T11:17:26.860Z,5.43
2024-03-07T11:19:55.325Z,3.70
2024-03-07T11:22:32.769Z,5.85
2024-03-07T11:25:08.808Z,7.78
2024-03-07T11:27:41.233Z,7.88
2024-03-07T11:30:11.813Z,23.85
2024-03-07T11:32:40.569Z,18.85
2024-03-07T11:35:15.857Z,13.63
2024-03-07T11:37:48.268Z,5.25
2024-03-07T11:40:26.217Z,5.97
2024-03-07T11:43:01.394Z,9.10
2024-03-07T11:45:31.584Z,9.70
2024-03-07T11:48:11.192Z,11.18
2024-03-07T11:50:41.814Z,3.60
2024-03-07T11:53:11.039Z,12.20
2024-03-07T11:55:47.516Z,10.93
2024-03-07T11:58:18.420Z,5.75
2024-03-07T12:00:47.762Z,5.72
2024-03-07T12:03:25.210Z,4.35
2024-03-07T12:05:54.338Z,7.90
2024-03-07T12:08:25.553Z,7.35
2024-03-07T12:10:58.972Z,6.80
2024-03-07T12:16:00.243Z,5.45
2024-03-07T12:18:31.118Z,11.15
2024-03-07T12:21:00.563Z,6.90
2024-03-07T12:23:29.503Z,9.95
2024-03-07T12:26:05.022Z,7.85
2024-03-07T12:28:40.196Z,12.43
2024-03-07T12:31:17.586Z,12.15
2024-03-07T12:33:53.459Z,9.27
2024-03-07T12:36:24.469Z,8.13
2024-03-07T12:38:57.174Z,7.22
2024-03-07T12:41:25.578Z,10.77
2024-03-07T12:43:55.228Z,8.00
2024-03-07T12:46:23.468Z,11.02
2024-03-07T12:48:52.265Z,6.30
2024-03-07T12:51:21.408Z,10.77
2024-03-07T12:53:54.067Z,9.77
2024-03-07T12:56:22.222Z,6.90
2024-03-07T12:58:51.917Z,11.30
2024-03-07T13:01:21.382Z,10.93
2024-03-07T13:03:51.225Z,6.78
2024-03-07T13:06:27.553Z,8.45
2024-03-07T13:08:59.687Z,14.15
2024-03-07T13:11:31.893Z,8.10
2024-03-07T13:14:01.252Z,8.63
2024-03-07T13:16:32.570Z,6.38
2024-03-07T13:19:02.596Z,4.53
2024-03-07T13:21:32.112Z,6.93
2024-03-07T13:24:02.226Z,8.93
2024-03-07T13:26:33.192Z,4.88
2024-03-07T13:29:03.057Z,9.63
2024-03-07T13:31:31.224Z,6.65
2024-03-07T13:34:03.505Z,7.80
2024-03-07T13:36:31.844Z,5.93
2024-03-07T13:39:00.697Z,5.68
2024-03-07T13:41:30.113Z,8.70
2024-03-07T13:44:01.434Z,11.05
2024-03-07T13:46:30.263Z,6.22
2024-03-07T13:49:08.674Z,5.10
2024-03-07T13:51:37.197Z,7.88
2024-03-07T13:54:29.463Z,4.25
2024-03-07T13:57:21.529Z,9.05
2024-03-07T14:00:18.013Z,4.53
2024-03-07T14:03:03.669Z,7.40
2024-03-07T14:05:46.616Z,6.07
2024-03-07T14:08:43.246Z,3.53
2024-03-07T14:11:36.792Z,16.17
2024-03-07T14:14:44.947Z,4.30
2024-03-07T14:17:25.668Z,5.63
2024-03-07T14:20:20.700Z,14.80
2024-03-07T14:23:18.219Z,7.50
2024-03-07T14:26:24.318Z,5.13
2024-03-07T14:29:37.315Z,10.52
2024-03-07T14:32:06.177Z,9.25
2024-03-07T14:34:58.400Z,10.23
2024-03-07T14:37:33.110Z,8.77
2024-03-07T14:40:15.320Z,4.00
2024-03-07T14:42:46.604Z,5.47
2024-03-07T14:45:24.942Z,8.27
2024-03-07T14:47:56.475Z,6.88
2024-03-07T14:50:28.999Z,9.10
2024-03-07T14:52:57.912Z,8.63
2024-03-07T14:55:26.317Z,11.57
2024-03-07T14:57:54.408Z,8.23
2024-03-07T15:00:34.180Z,8.45
2024-03-07T15:03:08.004Z,9.85
2024-03-07T15:05:37.876Z,7.13
2024-03-07T15:08:06.253Z,11.60
2024-03-07T15:10:39.450Z,14.43
2024-03-07T15:13:09.640Z,6.65
2024-03-07T15:15:38.101Z,6.45
2024-03-07T15:18:06.466Z,8.75
2024-03-07T15:20:34.999Z,10.43
2024-03-07T15:23:10.007Z,9.27
2024-03-07T15:25:38.363Z,11.57
2024-03-07T15:28:06.560Z,10.55
2024-03-07T15:30:38.066Z,7.80
2024-03-07T15:33:06.887Z,10.45
2024-03-07T15:35:36.668Z,5.88
2024-03-07T15:38:05.844Z,12.30
2024-03-07T15:40:35.551Z,12.40
2024-03-07T15:43:04.884Z,7.75
2024-03-07T15:45:33.579Z,9.82
2024-03-07T15:48:12.241Z,8.55
2024-03-07T15:50:45.750Z,9.55
2024-03-07T15:53:15.000Z,7.78
2024-03-07T15:55:44.490Z,11.00
2024-03-07T15:58:12.800Z,9.80
2024-03-07T16:00:42.584Z,16.17
2024-03-07T16:03:13.828Z,9.77
2024-03-07T16:05:48.660Z,20.20
2024-03-07T16:08:20.507Z,9.55
2024-03-07T16:10:50.144Z,7.05
2024-03-07T16:13:18.594Z,12.38
2024-03-07T16:15:48.726Z,9.23
2024-03-07T16:18:17.654Z,10.35
2024-03-07T16:20:48.945Z,9.70
2024-03-07T16:23:18.269Z,11.35
2024-03-07T16:25:47.142Z,6.95
2024-03-07T16:28:17.491Z,9.38
2024-03-07T16:30:47.201Z,12.15
2024-03-07T16:33:19.261Z,10.57
2024-03-07T16:35:49.242Z,7.10
2024-03-07T16:38:17.683Z,7.50
2024-03-07T16:40:46.668Z,7.03
2024-03-07T16:43:14.893Z,7.25
2024-03-07T16:45:44.270Z,12.43
2024-03-07T16:48:13.305Z,14.70
2024-03-07T16:50:43.254Z,17.38
2024-03-07T16:53:12.945Z,25.30
2024-03-07T16:55:41.464Z,12.02
2024-03-07T16:58:17.766Z,16.10
2024-03-07T17:00:46.293Z,15.80
2024-03-07T17:03:16.873Z,12.63
2024-03-07T17:05:46.323Z,21.27
2024-03-07T17:08:17.715Z,15.20
2024-03-07T17:10:47.492Z,13.15
2024-03-07T17:13:17.189Z,17.20
2024-03-07T17:15:47.702Z,13.82
2024-03-07T17:18:17.024Z,20.13
2024-03-07T17:20:47.261Z,15.63
2024-03-07T17:23:17.108Z,17.73
2024-03-07T17:25:48.362Z,22.55
2024-03-07T17:28:18.234Z,16.45
2024-03-07T17:30:47.050Z,15.63
2024-03-07T17:33:17.252Z,22.83
2024-03-07T17:35:46.344Z,15.15
2024-03-07T17:38:15.932Z,14.18
2024-03-07T17:40:44.748Z,15.82
2024-03-07T17:43:12.965Z,14.27
2024-03-07T17:45:42.485Z,24.58
2024-03-07T17:48:12.209Z,22.15
2024-03-07T17:50:43.760Z,14.35
2024-03-07T17:53:15.301Z,21.50
2024-03-07T17:55:46.727Z,24.67
2024-03-07T17:58:15.890Z,15.75
2024-03-07T18:00:46.774Z,25.45
2024-03-07T18:03:18.187Z,19.30
2024-03-07T18:05:53.756Z,18.23
2024-03-07T18:08:34.841Z,15.93
2024-03-07T18:11:15.348Z,15.85
2024-03-07T18:13:45.391Z,21.65
2024-03-07T18:16:17.400Z,36.40
2024-03-07T18:18:51.261Z,21.77
2024-03-07T18:21:20.010Z,23.98
2024-03-07T18:23:48.249Z,16.98
2024-03-07T18:26:16.809Z,19.88
2024-03-07T18:28:45.747Z,20.95
2024-03-07T18:31:19.445Z,16.45
2024-03-07T18:33:47.914Z,25.00
2024-03-07T18:36:16.631Z,20.10
2024-03-07T18:38:46.856Z,16.98
2024-03-07T18:41:17.462Z,17.65
2024-03-07T18:43:45.619Z,22.90
2024-03-07T18:46:14.154Z,18.85
2024-03-07T18:48:43.922Z,18.35
2024-03-07T18:51:12.940Z,24.35
2024-03-07T18:53:41.315Z,23.33
2024-03-07T18:56:12.523Z,18.08
2024-03-07T18:58:40.989Z,24.88
2024-03-07T19:01:09.908Z,17.30
2024-03-07T19:03:38.280Z,22.17
2024-03-07T19:06:10.469Z,16.33
2024-03-07T19:08:38.909Z,20.63
2024-03-07T19:11:08.221Z,18.08
2024-03-07T19:13:37.616Z,22.77
2024-03-07T19:16:08.174Z,23.10
2024-03-07T19:18:36.369Z,20.30
2024-03-07T19:21:11.852Z,17.08
2024-03-07T19:23:47.021Z,20.67
2024-03-07T19:26:21.132Z,21.17
2024-03-07T19:28:49.897Z,25.10
2024-03-07T19:31:18.350Z,17.73
2024-03-07T19:33:46.843Z,20.35
2024-03-07T19:36:15.827Z,18.98
2024-03-07T19:38:47.625Z,21.88
2024-03-07T19:41:16.706Z,21.02
2024-03-07T19:43:45.162Z,23.30
2024-03-07T19:46:13.740Z,19.40
2024-03-07T19:48:42.285Z,21.33
2024-03-07T19:51:11.391Z,22.50
2024-03-07T19:53:40.811Z,30.45
2024-03-07T19:56:09.685Z,16.13
2024-03-07T19:58:39.459Z,19.15
2024-03-07T20:01:13.231Z,20.02
2024-03-07T20:06:10.827Z,16.67
2024-03-07T20:08:39.596Z,17.58
2024-03-07T20:11:08.518Z,15.05
2024-03-07T20:13:41.840Z,19.77
2024-03-07T20:18:41.344Z,23.50
2024-03-07T20:21:11.162Z,18.67
2024-03-07T20:23:41.809Z,17.92
2024-03-07T20:26:10.438Z,23.58
2024-03-07T20:28:38.787Z,24.92
2024-03-07T20:31:09.692Z,20.88
2024-03-07T20:33:38.745Z,21.27
2024-03-07T20:36:10.393Z,23.77
2024-03-07T20:38:39.656Z,17.80
2024-03-07T20:41:08.369Z,18.45
2024-03-07T20:43:37.529Z,18.48
2024-03-07T20:46:07.483Z,15.18
2024-03-07T20:48:37.253Z,25.48
2024-03-07T20:51:07.466Z,23.98
2024-03-07T20:53:35.944Z,16.98
2024-03-07T20:56:07.772Z,19.67
2024-03-07T20:58:36.871Z,25.90
2024-03-07T21:01:09.465Z,21.83
2024-03-07T21:03:42.901Z,19.98
2024-03-07T21:06:12.264Z,25.42
2024-03-07T21:08:41.381Z,26.17
2024-03-07T21:11:10.447Z,15.63
2024-03-07T21:13:40.489Z,19.60
2024-03-07T21:16:12.876Z,19.48
2024-03-07T21:18:41.664Z,19.88
2024-03-07T21:21:10.676Z,20.30
2024-03-07T21:23:41.857Z,29.38
2024-03-07T21:26:13.358Z,20.42
2024-03-07T21:28:42.324Z,21.00
2024-03-07T21:31:10.740Z,19.10
2024-03-07T21:33:40.926Z,16.52
2024-03-07T21:36:11.082Z,20.83
2024-03-07T21:38:40.172Z,17.83
2024-03-07T21:41:10.682Z,20.75
2024-03-07T21:43:38.847Z,17.70
2024-03-07T21:46:07.665Z,16.65
2024-03-07T21:48:36.024Z,15.95
2024-03-07T21:51:04.882Z,24.33
2024-03-07T21:53:33.032Z,19.38
2024-03-07T21:56:03.506Z,20.23
2024-03-07T21:58:31.628Z,16.77
2024-03-07T22:01:00.040Z,16.85
2024-03-07T22:03:28.115Z,21.38
2024-03-07T22:05:57.739Z,16.20
2024-03-07T22:08:28.262Z,20.63
2024-03-07T22:10:56.651Z,20.70
2024-03-07T22:13:24.914Z,19.83
2024-03-07T22:15:53.207Z,20.70
2024-03-07T22:18:22.562Z,21.45
2024-03-07T22:20:51.302Z,17.70
2024-03-07T22:23:19.452Z,17.92
2024-03-07T22:25:48.331Z,14.98
2024-03-07T22:28:16.498Z,19.83
2024-03-07T22:30:45.578Z,17.77
2024-03-07T22:33:13.714Z,19.23
2024-03-07T22:35:42.226Z,18.42
2024-03-07T22:38:10.575Z,21.73
2024-03-07T22:40:38.967Z,15.43
2024-03-07T22:43:07.192Z,14.32
2024-03-07T22:45:35.679Z,14.50
2024-03-07T22:48:04.061Z,14.13
2024-03-07T22:50:33.485Z,13.02
2024-03-07T22:53:03.097Z,15.70
2024-03-07T22:55:33.657Z,11.80
2024-03-07T22:58:01.773Z,11.80
2024-03-07T23:00:33.638Z,12.65
2024-03-07T23:03:06.168Z,9.73
2024-03-07T23:05:35.635Z,11.18
2024-03-07T23:08:03.905Z,10.00
2024-03-07T23:10:32.665Z,10.63
2024-03-07T23:13:01.990Z,8.57
2024-03-07T23:15:32.340Z,7.75
2024-03-07T23:18:02.396Z,10.35
2024-03-07T23:20:30.974Z,8.45
2024-03-07T23:23:00.349Z,5.78
2024-03-07T23:25:30.009Z,5.35
2024-03-07T23:28:01.166Z,6.45
2024-03-07T23:30:31.496Z,6.05
2024-03-07T23:33:00.176Z,8.63
2024-03-07T23:35:29.080Z,6.68
2024-03-07T23:37:58.519Z,10.65
2024-03-07T23:40:30.304Z,5.45
2024-03-07T23:42:59.164Z,9.50
2024-03-07T23:45:28.746Z,6.40
2024-03-07T23:47:59.243Z,7.75
2024-03-07T23:50:28.382Z,7.18
2024-03-07T23:52:56.659Z,8.10
2024-03-07T23:55:25.258Z,7.63
2024-03-07T23:57:53.477Z,5.57
